createdAt,value
2023-02-16T00:01:25.993Z,71.76
2023-02-16T00:03:55.356Z,72.36
2023-02-16T00:06:25.359Z,71.79
2023-02-16T00:08:54.823Z,72.07
2023-02-16T00:11:45.827Z,71.79
2023-02-16T00:14:15.219Z,71.97
2023-02-16T00:16:43.112Z,72.39
2023-02-16T00:19:22.878Z,72.41
2023-02-16T00:21:54.977Z,72.19
2023-02-16T00:24:23.766Z,72.07
2023-02-16T00:26:51.777Z,72.63
2023-02-16T00:29:26.832Z,72.17
2023-02-16T00:31:56.514Z,72.89
2023-02-16T00:34:31.235Z,72.94
2023-02-16T00:37:02.292Z,72.90
2023-02-16T00:39:31.142Z,72.71
2023-02-16T00:42:04.105Z,72.22
2023-02-16T00:44:35.844Z,73.32
2023-02-16T00:47:12.836Z,73.03
2023-02-16T00:49:40.728Z,73.75
2023-02-16T00:52:28.578Z,73.85
2023-02-16T00:54:56.756Z,73.25
2023-02-16T00:57:25.914Z,74.48
2023-02-16T01:00:00.692Z,75.35
2023-02-16T01:02:29.119Z,75.67
2023-02-16T01:04:57.143Z,75.77
2023-02-16T01:07:44.310Z,75.38
2023-02-16T01:10:30.690Z,75.36
2023-02-16T01:12:59.352Z,75.05
2023-02-16T01:15:28.251Z,74.60
2023-02-16T01:17:56.341Z,75.44
2023-02-16T01:20:27.471Z,75.34
2023-02-16T01:22:56.774Z,75.79
2023-02-16T01:25:25.039Z,75.60
2023-02-16T01:27:54.287Z,75.12
2023-02-16T01:30:23.919Z,75.37
2023-02-16T01:32:52.584Z,74.93
2023-02-16T01:35:21.487Z,75.12
2023-02-16T01:37:49.432Z,75.23
2023-02-16T01:40:37.964Z,75.41
2023-02-16T01:43:15.621Z,75.21
2023-02-16T01:45:46.272Z,74.60
2023-02-16T01:48:22.945Z,74.63
2023-02-16T01:51:00.077Z,74.78
2023-02-16T01:53:34.412Z,75.67
2023-02-16T01:56:07.578Z,76.03
2023-02-16T01:58:41.759Z,75.74
2023-02-16T02:01:37.400Z,75.50
2023-02-16T02:04:30.800Z,75.04
2023-02-16T02:06:58.764Z,76.19
2023-02-16T02:09:36.427Z,76.66
2023-02-16T02:12:14.661Z,76.91
2023-02-16T02:14:43.933Z,77.82
2023-02-16T02:17:15.577Z,78.29
2023-02-16T02:19:52.185Z,78.03
2023-02-16T02:23:16.473Z,77.56
2023-02-16T02:26:25.373Z,77.16
2023-02-16T02:29:03.670Z,77.13
2023-02-16T02:31:48.066Z,78.02
2023-02-16T02:34:26.005Z,78.62
2023-02-16T02:37:06.359Z,78.46
2023-02-16T02:39:42.174Z,77.59
2023-02-16T02:42:19.672Z,78.94
2023-02-16T02:44:57.978Z,78.87
2023-02-16T02:47:38.533Z,78.62
2023-02-16T02:50:35.182Z,78.49
2023-02-16T02:53:07.407Z,78.01
2023-02-16T02:55:57.651Z,77.56
2023-02-16T02:58:45.147Z,77.12
2023-02-16T03:01:16.491Z,77.21
2023-02-16T03:03:49.207Z,77.44
2023-02-16T03:06:23.238Z,77.61
2023-02-16T03:08:56.033Z,78.53
2023-02-16T03:11:45.714Z,78.67
2023-02-16T03:14:19.003Z,78.69
2023-02-16T03:17:06.010Z,78.98
2023-02-16T03:19:51.320Z,79.19
2023-02-16T03:22:36.778Z,78.45
2023-02-16T03:25:22.059Z,78.92
2023-02-16T03:28:08.145Z,79.32
2023-02-16T03:30:36.517Z,79.54
2023-02-16T03:33:05.815Z,79.10
2023-02-16T03:35:33.816Z,79.36
2023-02-16T03:38:01.775Z,79.15
2023-02-16T03:40:32.811Z,79.20
2023-02-16T03:43:03.893Z,78.90
2023-02-16T03:45:35.019Z,78.12
2023-02-16T03:48:03.384Z,77.85
2023-02-16T03:50:33.061Z,78.12
2023-02-16T03:53:07.770Z,77.98
2023-02-16T03:55:37.058Z,77.69
2023-02-16T03:58:05.425Z,77.02
2023-02-16T04:00:34.161Z,76.88
2023-02-16T04:03:02.130Z,76.83
2023-02-16T04:05:30.178Z,76.96
2023-02-16T04:07:59.431Z,77.03
2023-02-16T04:10:27.429Z,76.66
2023-02-16T04:12:54.336Z,76.41
2023-02-16T04:15:24.772Z,76.34
2023-02-16T04:17:53.982Z,76.78
2023-02-16T04:20:24.466Z,77.14
2023-02-16T04:22:52.865Z,77.39
2023-02-16T04:25:22.903Z,77.46
2023-02-16T04:27:51.529Z,77.42
2023-02-16T04:30:21.605Z,77.18
2023-02-16T04:32:49.545Z,78.12
2023-02-16T04:35:18.259Z,76.96
2023-02-16T04:37:46.372Z,76.77
2023-02-16T04:40:15.712Z,76.82
2023-02-16T04:42:46.098Z,77.16
2023-02-16T04:45:14.364Z,77.17
2023-02-16T04:47:42.430Z,77.81
2023-02-16T04:50:11.205Z,77.07
2023-02-16T04:52:39.397Z,77.48
2023-02-16T04:55:10.641Z,78.20
2023-02-16T04:57:38.625Z,77.86
2023-02-16T05:00:11.670Z,77.33
2023-02-16T05:02:39.616Z,78.06
2023-02-16T05:05:08.549Z,78.75
2023-02-16T05:07:36.978Z,78.39
2023-02-16T05:10:06.154Z,79.01
2023-02-16T05:12:51.868Z,78.84
2023-02-16T05:15:21.485Z,78.34
2023-02-16T05:17:49.333Z,77.96
2023-02-16T05:20:17.371Z,78.05
2023-02-16T05:22:46.318Z,78.87
2023-02-16T05:25:14.320Z,78.43
2023-02-16T05:27:42.207Z,78.54
2023-02-16T05:30:11.220Z,78.09
2023-02-16T05:32:40.448Z,78.28
2023-02-16T05:35:08.620Z,78.21
2023-02-16T05:37:36.482Z,78.17
2023-02-16T05:40:04.492Z,78.19
2023-02-16T05:42:32.314Z,77.01
2023-02-16T05:45:00.213Z,77.10
2023-02-16T05:47:28.028Z,77.08
2023-02-16T05:49:57.289Z,77.48
2023-02-16T05:52:25.235Z,77.39
2023-02-16T05:54:53.110Z,77.12
2023-02-16T05:57:20.914Z,77.14
2023-02-16T05:59:48.846Z,77.44
2023-02-16T06:02:16.740Z,77.28
2023-02-16T06:04:44.947Z,76.56
2023-02-16T06:07:14.998Z,76.73
2023-02-16T06:09:42.979Z,76.72
2023-02-16T06:12:10.832Z,76.93
2023-02-16T06:14:38.725Z,75.92
2023-02-16T06:17:06.603Z,76.54
2023-02-16T06:19:34.615Z,76.31
2023-02-16T06:22:02.601Z,75.88
2023-02-16T06:24:31.860Z,76.99
2023-02-16T06:26:59.689Z,77.00
2023-02-16T06:29:27.572Z,76.58
2023-02-16T06:31:55.557Z,76.81
2023-02-16T06:34:23.634Z,76.35
2023-02-16T06:36:51.547Z,76.34
2023-02-16T06:39:19.640Z,76.22
2023-02-16T06:41:48.946Z,76.37
2023-02-16T06:44:18.259Z,76.47
2023-02-16T06:46:48.105Z,76.12
2023-02-16T06:49:18.954Z,75.84
2023-02-16T06:51:47.959Z,75.98
2023-02-16T06:54:16.438Z,75.81
2023-02-16T06:56:44.391Z,75.64
2023-02-16T06:59:13.826Z,74.94
2023-02-16T07:01:44.072Z,75.30
2023-02-16T07:04:12.828Z,75.25
2023-02-16T07:06:41.210Z,75.01
2023-02-16T07:09:10.646Z,75.02
2023-02-16T07:11:39.402Z,75.37
2023-02-16T07:14:07.361Z,75.08
2023-02-16T07:16:36.711Z,74.69
2023-02-16T07:19:05.641Z,75.26
2023-02-16T07:21:33.523Z,74.57
2023-02-16T07:24:01.418Z,75.35
2023-02-16T07:26:29.382Z,75.21
2023-02-16T07:28:57.226Z,74.75
2023-02-16T07:31:26.604Z,75.01
2023-02-16T07:33:55.882Z,74.87
2023-02-16T07:36:23.835Z,75.37
2023-02-16T07:38:51.721Z,74.96
2023-02-16T07:41:22.388Z,75.41
2023-02-16T07:43:50.306Z,75.59
2023-02-16T07:46:18.451Z,75.32
2023-02-16T07:48:48.439Z,75.35
2023-02-16T07:51:23.313Z,75.74
2023-02-16T07:53:51.363Z,74.84
2023-02-16T07:56:21.026Z,75.42
2023-02-16T07:58:49.062Z,75.37
2023-02-16T08:01:17.504Z,75.08
2023-02-16T08:03:46.691Z,74.62
2023-02-16T08:06:15.392Z,74.78
2023-02-16T08:08:45.550Z,75.16
2023-02-16T08:11:15.224Z,74.62
2023-02-16T08:13:43.228Z,75.44
2023-02-16T08:16:12.103Z,74.47
2023-02-16T08:18:41.711Z,74.83
2023-02-16T08:21:14.378Z,74.70
2023-02-16T08:23:47.524Z,74.70
2023-02-16T08:26:19.268Z,74.79
2023-02-16T08:28:50.028Z,74.58
2023-02-16T08:31:19.984Z,74.66
2023-02-16T08:33:49.096Z,74.59
2023-02-16T08:36:21.083Z,74.13
2023-02-16T08:38:51.149Z,74.51
2023-02-16T08:41:20.393Z,74.01
2023-02-16T08:43:48.632Z,74.54
2023-02-16T08:46:17.254Z,74.53
2023-02-16T08:48:46.039Z,74.87
2023-02-16T08:51:15.988Z,74.74
2023-02-16T08:53:44.140Z,74.69
2023-02-16T08:56:14.592Z,74.92
2023-02-16T08:58:44.811Z,74.42
2023-02-16T09:01:13.845Z,74.60
2023-02-16T09:03:43.185Z,74.53
2023-02-16T09:06:13.260Z,74.43
2023-02-16T09:08:42.073Z,74.42
2023-02-16T09:11:13.047Z,74.54
2023-02-16T09:13:43.250Z,74.77
2023-02-16T09:16:13.101Z,74.46
2023-02-16T09:18:41.242Z,74.33
2023-02-16T09:21:11.376Z,74.20
2023-02-16T09:23:40.583Z,74.30
2023-02-16T09:26:09.846Z,74.21
2023-02-16T09:28:38.598Z,74.08
2023-02-16T09:31:12.372Z,73.99
2023-02-16T09:33:41.475Z,73.84
2023-02-16T09:36:12.983Z,73.68
2023-02-16T09:38:41.489Z,73.66
2023-02-16T09:41:17.326Z,73.38
2023-02-16T09:43:52.655Z,73.36
2023-02-16T09:46:25.099Z,73.27
2023-02-16T09:48:53.927Z,73.21
2023-02-16T09:51:33.928Z,73.04
2023-02-16T09:54:14.199Z,73.36
2023-02-16T09:56:48.112Z,73.39
2023-02-16T09:59:36.983Z,73.50
2023-02-16T10:02:34.430Z,73.30
2023-02-16T10:05:20.091Z,73.58
2023-02-16T10:08:07.754Z,73.38
2023-02-16T10:10:44.673Z,73.64
2023-02-16T10:13:20.297Z,73.57
2023-02-16T10:15:52.452Z,73.40
2023-02-16T10:18:29.247Z,73.01
2023-02-16T10:21:01.660Z,73.01
2023-02-16T10:23:45.327Z,73.10
2023-02-16T10:26:24.561Z,73.34
2023-02-16T10:28:55.967Z,73.09
2023-02-16T10:31:35.159Z,72.71
2023-02-16T10:34:23.395Z,72.83
2023-02-16T10:37:18.759Z,72.39
2023-02-16T10:39:52.965Z,72.62
2023-02-16T10:42:28.306Z,72.40
2023-02-16T10:45:03.903Z,72.29
2023-02-16T10:47:35.743Z,72.09
2023-02-16T10:50:07.052Z,72.16
2023-02-16T10:52:40.518Z,72.41
2023-02-16T10:55:08.974Z,72.50
2023-02-16T10:57:37.253Z,72.38
2023-02-16T11:00:10.340Z,71.83
2023-02-16T11:02:40.920Z,71.81
2023-02-16T11:05:33.274Z,71.69
2023-02-16T11:08:02.712Z,70.65
2023-02-16T11:10:40.431Z,70.98
2023-02-16T11:13:18.360Z,70.56
2023-02-16T11:15:54.481Z,71.04
2023-02-16T11:18:36.432Z,70.90
2023-02-16T11:21:07.376Z,71.56
2023-02-16T11:23:36.940Z,71.10
2023-02-16T11:26:06.901Z,70.76
2023-02-16T11:28:36.996Z,71.64
2023-02-16T11:31:14.908Z,71.38
2023-02-16T11:33:43.998Z,71.05
2023-02-16T11:36:33.483Z,70.66
2023-02-16T11:39:06.914Z,70.70
2023-02-16T11:41:35.779Z,71.16
2023-02-16T11:44:04.602Z,70.98
2023-02-16T11:46:40.822Z,71.29
2023-02-16T11:49:23.749Z,71.39
2023-02-16T11:51:52.984Z,71.19
2023-02-16T11:54:21.804Z,70.97
2023-02-16T11:57:04.302Z,71.42
2023-02-16T11:59:37.255Z,70.59
2023-02-16T12:02:37.647Z,71.20
2023-02-16T12:05:22.012Z,70.64
2023-02-16T12:08:11.021Z,70.24
2023-02-16T12:10:49.857Z,70.77
2023-02-16T12:13:25.670Z,70.62
2023-02-16T12:16:03.264Z,70.19
2023-02-16T12:18:41.173Z,70.29
2023-02-16T12:21:23.828Z,69.42
2023-02-16T12:23:58.319Z,69.78
2023-02-16T12:26:39.271Z,69.97
2023-02-16T12:29:25.412Z,69.26
2023-02-16T12:32:07.310Z,69.68
2023-02-16T12:34:50.984Z,68.71
2023-02-16T12:37:27.675Z,68.86
2023-02-16T12:40:04.878Z,68.42
2023-02-16T12:43:00.568Z,69.00
2023-02-16T12:45:33.892Z,68.65
2023-02-16T12:48:10.108Z,68.14
2023-02-16T12:50:44.142Z,68.10
2023-02-16T12:53:22.011Z,67.83
2023-02-16T12:55:56.487Z,66.59
2023-02-16T12:58:29.880Z,67.12
2023-02-16T13:01:01.611Z,66.47
2023-02-16T13:03:35.843Z,66.31
2023-02-16T13:06:19.306Z,66.73
2023-02-16T13:08:53.134Z,66.45
2023-02-16T13:11:28.388Z,66.72
2023-02-16T13:14:03.253Z,66.76
2023-02-16T13:16:40.627Z,65.92
2023-02-16T13:19:12.840Z,66.09
2023-02-16T13:22:01.565Z,65.77
2023-02-16T13:24:44.303Z,65.18
2023-02-16T13:27:30.030Z,65.14
2023-02-16T13:30:10.387Z,64.98
2023-02-16T13:32:56.238Z,64.92
2023-02-16T13:36:02.199Z,65.15
2023-02-16T13:38:50.167Z,64.93
2023-02-16T13:41:46.590Z,64.52
2023-02-16T13:44:18.232Z,64.83
2023-02-16T13:46:50.312Z,64.62
2023-02-16T13:49:36.171Z,64.80
2023-02-16T13:52:04.762Z,64.46
2023-02-16T13:54:35.595Z,64.63
2023-02-16T13:57:04.316Z,64.50
2023-02-16T14:00:05.402Z,64.89
2023-02-16T14:02:56.697Z,64.94
2023-02-16T14:05:29.093Z,64.50
2023-02-16T14:08:21.823Z,64.91
2023-02-16T14:11:11.489Z,64.66
2023-02-16T14:13:48.823Z,64.41
2023-02-16T14:16:33.662Z,64.51
2023-02-16T14:19:05.076Z,64.68
2023-02-16T14:21:38.312Z,64.87
2023-02-16T14:24:11.511Z,65.54
2023-02-16T14:26:59.222Z,65.01
2023-02-16T14:29:30.993Z,65.28
2023-02-16T14:32:06.280Z,65.16
2023-02-16T14:34:41.329Z,65.06
2023-02-16T14:37:29.829Z,65.13
2023-02-16T14:40:15.838Z,65.62
2023-02-16T14:42:51.238Z,65.39
2023-02-16T14:45:39.525Z,66.17
2023-02-16T14:48:23.693Z,66.77
2023-02-16T14:51:14.321Z,65.99
2023-02-16T14:54:30.666Z,66.62
2023-02-16T14:57:02.911Z,66.74
2023-02-16T14:59:34.693Z,66.26
2023-02-16T15:02:28.202Z,67.19
2023-02-16T15:04:56.284Z,67.29
2023-02-16T15:07:26.465Z,67.33
2023-02-16T15:09:57.836Z,67.67
2023-02-16T15:12:40.522Z,67.11
2023-02-16T15:15:10.734Z,68.05
2023-02-16T15:17:41.788Z,68.78
2023-02-16T15:20:19.777Z,68.67
2023-02-16T15:22:51.226Z,69.25
2023-02-16T15:25:25.752Z,70.26
2023-02-16T15:27:58.951Z,71.29
2023-02-16T15:30:29.748Z,70.96
2023-02-16T15:33:01.504Z,72.09
2023-02-16T15:35:35.376Z,72.56
2023-02-16T15:38:07.978Z,71.90
2023-02-16T15:40:37.296Z,72.94
2023-02-16T15:43:15.176Z,73.13
2023-02-16T15:45:43.059Z,72.86
2023-02-16T15:48:18.377Z,73.73
2023-02-16T15:50:46.844Z,74.11
2023-02-16T15:53:16.473Z,73.68
2023-02-16T15:55:46.748Z,73.74
2023-02-16T15:58:16.529Z,74.23
2023-02-16T16:00:47.676Z,74.82
2023-02-16T16:03:18.520Z,74.67
2023-02-16T16:05:59.514Z,74.56
2023-02-16T16:08:29.235Z,75.08
2023-02-16T16:10:57.899Z,75.10
2023-02-16T16:13:28.537Z,75.49
2023-02-16T16:16:01.741Z,75.75
2023-02-16T16:18:46.307Z,76.07
2023-02-16T16:21:21.289Z,75.98
2023-02-16T16:23:57.900Z,76.74
2023-02-16T16:26:28.611Z,76.63
2023-02-16T16:28:56.904Z,76.65
2023-02-16T16:31:53.918Z,76.84
2023-02-16T16:34:35.311Z,77.16
2023-02-16T16:37:04.544Z,77.11
2023-02-16T16:39:35.120Z,77.25
2023-02-16T16:42:21.260Z,77.22
2023-02-16T16:45:02.274Z,77.41
2023-02-16T16:47:34.175Z,77.60
2023-02-16T16:50:07.586Z,77.53
2023-02-16T16:52:42.055Z,77.29
2023-02-16T16:55:26.168Z,77.54
2023-02-16T16:57:55.666Z,77.81
2023-02-16T17:00:26.335Z,77.63
2023-02-16T17:02:54.416Z,77.81
2023-02-16T17:05:23.620Z,77.84
2023-02-16T17:07:51.963Z,77.73
2023-02-16T17:10:21.851Z,77.20
2023-02-16T17:12:53.469Z,77.74
2023-02-16T17:15:32.530Z,77.82
2023-02-16T17:18:01.390Z,77.61
2023-02-16T17:20:30.851Z,77.63
2023-02-16T17:23:04.487Z,77.63
2023-02-16T17:25:34.785Z,77.55
2023-02-16T17:28:02.926Z,77.50
2023-02-16T17:30:32.360Z,77.78
2023-02-16T17:33:00.492Z,77.68
2023-02-16T17:35:30.604Z,77.57
2023-02-16T17:37:58.470Z,77.54
2023-02-16T17:40:27.104Z,77.86
2023-02-16T17:42:54.962Z,78.05
2023-02-16T17:45:23.584Z,78.43
2023-02-16T17:47:53.156Z,78.60
2023-02-16T17:50:22.003Z,78.42
2023-02-16T17:52:57.014Z,78.32
2023-02-16T17:55:25.531Z,78.59
2023-02-16T17:57:53.925Z,78.63
2023-02-16T18:00:23.495Z,78.92
2023-02-16T18:02:51.548Z,78.67
2023-02-16T18:05:19.523Z,78.13
2023-02-16T18:07:47.488Z,78.68
2023-02-16T18:10:30.859Z,78.70
2023-02-16T18:12:58.778Z,78.53
2023-02-16T18:15:26.618Z,78.76
2023-02-16T18:17:55.462Z,78.19
2023-02-16T18:20:23.944Z,78.52
2023-02-16T18:22:51.917Z,78.46
2023-02-16T18:25:21.226Z,78.22
2023-02-16T18:27:49.443Z,78.09
2023-02-16T18:30:18.306Z,78.37
2023-02-16T18:32:47.012Z,77.98
2023-02-16T18:35:17.104Z,78.05
2023-02-16T18:37:46.094Z,77.74
2023-02-16T18:40:16.787Z,77.86
2023-02-16T18:42:46.256Z,77.70
2023-02-16T18:45:14.367Z,77.47
2023-02-16T18:47:42.617Z,77.67
2023-02-16T18:50:11.643Z,77.79
2023-02-16T18:52:42.359Z,77.82
2023-02-16T18:55:11.250Z,77.90
2023-02-16T18:57:39.549Z,78.16
2023-02-16T19:00:11.271Z,77.85
2023-02-16T19:02:40.806Z,78.03
2023-02-16T19:05:09.326Z,78.08
2023-02-16T19:07:37.575Z,78.01
2023-02-16T19:10:08.273Z,77.96
2023-02-16T19:12:36.208Z,78.13
2023-02-16T19:15:04.672Z,77.65
2023-02-16T19:17:34.000Z,77.97
2023-02-16T19:20:02.039Z,77.88
2023-02-16T19:22:29.961Z,77.80
2023-02-16T19:24:57.856Z,77.88
2023-02-16T19:27:25.705Z,78.15
2023-02-16T19:29:53.646Z,78.36
2023-02-16T19:32:21.807Z,77.50
2023-02-16T19:34:51.050Z,77.72
2023-02-16T19:37:19.043Z,77.16
2023-02-16T19:39:47.219Z,77.42
2023-02-16T19:42:15.203Z,78.00
2023-02-16T19:44:43.055Z,78.05
2023-02-16T19:47:10.967Z,78.12
2023-02-16T19:49:38.886Z,78.05
2023-02-16T19:52:08.203Z,77.62
2023-02-16T19:54:37.132Z,78.05
2023-02-16T19:57:05.726Z,78.45
2023-02-16T19:59:35.395Z,78.48
2023-02-16T20:02:03.420Z,78.71
2023-02-16T20:04:31.457Z,78.91
2023-02-16T20:06:59.439Z,78.82
2023-02-16T20:09:29.152Z,78.30
2023-02-16T20:11:57.083Z,78.68
2023-02-16T20:14:24.994Z,78.67
2023-02-16T20:16:52.904Z,77.85
2023-02-16T20:19:20.961Z,77.86
2023-02-16T20:21:48.844Z,78.02
2023-02-16T20:24:16.883Z,77.74
2023-02-16T20:26:49.060Z,77.79
2023-02-16T20:29:17.112Z,78.09
2023-02-16T20:31:49.869Z,78.15
2023-02-16T20:34:17.996Z,77.84
2023-02-16T20:36:46.001Z,77.45
2023-02-16T20:39:14.630Z,77.85
2023-02-16T20:41:42.908Z,77.26
2023-02-16T20:44:12.353Z,78.28
2023-02-16T20:46:41.138Z,77.84
2023-02-16T20:49:09.540Z,77.94
2023-02-16T20:51:40.270Z,77.77
2023-02-16T20:54:08.406Z,77.27
2023-02-16T20:56:36.312Z,77.90
2023-02-16T20:59:05.157Z,78.50
2023-02-16T21:01:38.112Z,78.76
2023-02-16T21:04:07.757Z,78.08
2023-02-16T21:06:36.825Z,77.98
2023-02-16T21:09:05.397Z,78.13
2023-02-16T21:11:33.482Z,78.12
2023-02-16T21:14:02.357Z,78.00
2023-02-16T21:16:30.624Z,77.76
2023-02-16T21:19:00.129Z,77.68
2023-02-16T21:21:28.140Z,77.88
2023-02-16T21:23:56.434Z,77.80
2023-02-16T21:26:26.032Z,76.97
2023-02-16T21:28:54.600Z,77.80
2023-02-16T21:31:25.988Z,77.49
2023-02-16T21:33:54.536Z,77.23
2023-02-16T21:36:26.488Z,76.88
2023-02-16T21:38:54.802Z,77.38
2023-02-16T21:41:27.722Z,78.30
2023-02-16T21:43:58.439Z,77.06
2023-02-16T21:46:27.183Z,78.40
2023-02-16T21:48:55.154Z,78.83
2023-02-16T21:51:26.859Z,79.21
2023-02-16T21:53:55.647Z,78.57
2023-02-16T21:56:27.616Z,78.52
2023-02-16T21:58:55.495Z,78.71
2023-02-16T22:01:24.854Z,78.16
2023-02-16T22:03:58.497Z,78.68
2023-02-16T22:06:29.709Z,78.52
2023-02-16T22:08:57.575Z,78.22
2023-02-16T22:11:26.060Z,77.98
2023-02-16T22:13:55.851Z,78.83
2023-02-16T22:16:24.753Z,79.47
2023-02-16T22:18:58.197Z,79.75
2023-02-16T22:21:26.494Z,80.62
2023-02-16T22:23:56.225Z,80.80
2023-02-16T22:26:26.483Z,80.72
2023-02-16T22:28:54.760Z,80.92
2023-02-16T22:31:24.042Z,80.54
2023-02-16T22:33:56.676Z,80.99
2023-02-16T22:36:24.854Z,80.96
2023-02-16T22:38:54.167Z,81.30
2023-02-16T22:41:24.010Z,80.55
2023-02-16T22:43:53.327Z,79.83
2023-02-16T22:46:21.443Z,79.92
2023-02-16T22:48:49.432Z,80.09
2023-02-16T22:51:18.729Z,79.71
2023-02-16T22:53:46.948Z,79.48
2023-02-16T22:56:17.001Z,78.53
2023-02-16T22:58:46.283Z,78.90
2023-02-16T23:01:16.311Z,78.04
2023-02-16T23:03:46.775Z,78.57
2023-02-16T23:06:16.294Z,77.38
2023-02-16T23:08:45.365Z,77.57
2023-02-16T23:11:14.791Z,78.42
2023-02-16T23:13:42.746Z,78.79
2023-02-16T23:16:18.667Z,78.51
2023-02-16T23:18:46.903Z,78.67
2023-02-16T23:21:17.703Z,78.38
2023-02-16T23:23:46.374Z,78.51
2023-02-16T23:26:15.069Z,79.17
2023-02-16T23:28:44.206Z,78.81
2023-02-16T23:31:13.702Z,78.97
2023-02-16T23:33:41.688Z,79.21
2023-02-16T23:36:10.286Z,79.10
2023-02-16T23:38:38.498Z,79.76
2023-02-16T23:41:09.187Z,79.30
2023-02-16T23:43:37.314Z,78.87
2023-02-16T23:46:05.878Z,78.74
2023-02-16T23:48:36.713Z,78.88
2023-02-16T23:51:04.879Z,78.45
2023-02-16T23:53:32.801Z,78.63
2023-02-16T23:56:01.225Z,78.58
2023-02-16T23:58:29.905Z,78.46
